sensor_id;sensor_type;location;lat;lon;timestamp;temperature;humidity
8662;DHT22;29684;47.722;9.388;2022-07-10T00:01:25;17.40;99.90
8662;DHT22;29684;47.722;9.388;2022-07-10T00:04:09;17.50;99.90
8662;DHT22;29684;47.722;9.388;2022-07-10T00:06:53;17.60;99.90
8662;DHT22;29684;47.722;9.388;2022-07-10T00:09:40;17.80;99.90
8662;DHT22;29684;47.722;9.388;2022-07-10T00:12:24;17.40;99.90
8662;DHT22;29684;47.722;9.388;2022-07-10T00:15:09;17.20;99.90
8662;DHT22;29684;47.722;9.388;2022-07-10T00:17:53;17.10;99.90
8662;DHT22;29684;47.722;9.388;2022-07-10T00:20:37;16.90;99.90
8662;DHT22;29684;47.722;9.388;2022-07-10T00:23:22;16.90;99.90
8662;DHT22;29684;47.722;9.388;2022-07-10T00:26:07;16.70;99.90
8662;DHT22;29684;47.722;9.388;2022-07-10T00:28:51;16.50;99.90
8662;DHT22;29684;47.722;9.388;2022-07-10T00:31:36;16.50;99.90
8662;DHT22;29684;47.722;9.388;2022-07-10T00:34:20;16.30;99.90
8662;DHT22;29684;47.722;9.388;2022-07-10T00:37:04;16.20;99.90
8662;DHT22;29684;47.722;9.388;2022-07-10T00:39:49;16.20;99.90
8662;DHT22;29684;47.722;9.388;2022-07-10T00:42:33;16.10;99.90
8662;DHT22;29684;47.722;9.388;2022-07-10T00:45:18;16.00;99.90
8662;DHT22;29684;47.722;9.388;2022-07-10T00:48:02;16.10;99.90
8662;DHT22;29684;47.722;9.388;2022-07-10T00:50:47;16.20;99.90
8662;DHT22;29684;47.722;9.388;2022-07-10T00:53:31;16.40;99.90
8662;DHT22;29684;47.722;9.388;2022-07-10T00:56:17;16.60;99.90
8662;DHT22;29684;47.722;9.388;2022-07-10T00:59:03;16.70;99.90
8662;DHT22;29684;47.722;9.388;2022-07-10T01:01:47;16.90;99.90
8662;DHT22;29684;47.722;9.388;2022-07-10T01:04:33;17.00;99.90
8662;DHT22;29684;47.722;9.388;2022-07-10T01:07:18;17.00;99.90
8662;DHT22;29684;47.722;9.388;2022-07-10T01:10:02;17.00;99.90
8662;DHT22;29684;47.722;9.388;2022-07-10T01:12:47;17.00;99.90
8662;DHT22;29684;47.722;9.388;2022-07-10T01:15:32;16.90;99.90
8662;DHT22;29684;47.722;9.388;2022-07-10T01:18:16;16.80;99.90
8662;DHT22;29684;47.722;9.388;2022-07-10T01:21:01;16.70;99.90
8662;DHT22;29684;47.722;9.388;2022-07-10T01:23:45;16.90;99.90
8662;DHT22;29684;47.722;9.388;2022-07-10T01:26:30;16.90;99.90
8662;DHT22;29684;47.722;9.388;2022-07-10T01:29:14;16.80;99.90
8662;DHT22;29684;47.722;9.388;2022-07-10T01:31:58;16.90;99.90
8662;DHT22;29684;47.722;9.388;2022-07-10T01:34:45;16.90;99.90
8662;DHT22;29684;47.722;9.388;2022-07-10T01:37:31;17.00;99.90
8662;DHT22;29684;47.722;9.388;2022-07-10T01:40:15;17.20;99.90
8662;DHT22;29684;47.722;9.388;2022-07-10T01:42:59;17.30;99.90
8662;DHT22;29684;47.722;9.388;2022-07-10T01:45:43;17.40;99.90
8662;DHT22;29684;47.722;9.388;2022-07-10T01:48:28;17.40;99.90
8662;DHT22;29684;47.722;9.388;2022-07-10T01:51:12;17.60;99.90
8662;DHT22;29684;47.722;9.388;2022-07-10T01:53:57;17.70;99.90
8662;DHT22;29684;47.722;9.388;2022-07-10T01:56:41;17.80;99.90
8662;DHT22;29684;47.722;9.388;2022-07-10T01:59:25;17.80;99.90
8662;DHT22;29684;47.722;9.388;2022-07-10T02:02:09;17.70;99.90
8662;DHT22;29684;47.722;9.388;2022-07-10T02:04:54;17.60;99.90
8662;DHT22;29684;47.722;9.388;2022-07-10T02:07:38;17.50;99.90
8662;DHT22;29684;47.722;9.388;2022-07-10T02:10:22;17.40;99.90
8662;DHT22;29684;47.722;9.388;2022-07-10T02:13:06;17.40;99.90
8662;DHT22;29684;47.722;9.388;2022-07-10T02:15:51;17.20;99.90
8662;DHT22;29684;47.722;9.388;2022-07-10T02:18:35;17.20;99.90
8662;DHT22;29684;47.722;9.388;2022-07-10T02:21:20;17.20;99.90
8662;DHT22;29684;47.722;9.388;2022-07-10T02:24:04;17.20;99.90
8662;DHT22;29684;47.722;9.388;2022-07-10T02:26:48;17.20;99.90
8662;DHT22;29684;47.722;9.388;2022-07-10T02:29:33;17.10;99.90
8662;DHT22;29684;47.722;9.388;2022-07-10T02:32:17;17.10;99.90
8662;DHT22;29684;47.722;9.388;2022-07-10T02:35:01;17.10;99.90
8662;DHT22;29684;47.722;9.388;2022-07-10T02:37:45;17.00;99.90
8662;DHT22;29684;47.722;9.388;2022-07-10T02:40:29;17.00;99.90
8662;DHT22;29684;47.722;9.388;2022-07-10T02:43:13;16.90;99.90
8662;DHT22;29684;47.722;9.388;2022-07-10T02:45:58;16.90;99.90
8662;DHT22;29684;47.722;9.388;2022-07-10T02:48:42;17.00;99.90
8662;DHT22;29684;47.722;9.388;2022-07-10T02:51:26;17.00;99.90
8662;DHT22;29684;47.722;9.388;2022-07-10T02:54:10;16.80;99.90
8662;DHT22;29684;47.722;9.388;2022-07-10T02:56:54;16.90;99.90
8662;DHT22;29684;47.722;9.388;2022-07-10T02:59:39;16.80;99.90
8662;DHT22;29684;47.722;9.388;2022-07-10T03:02:24;16.80;99.90
8662;DHT22;29684;47.722;9.388;2022-07-10T03:05:08;16.80;99.90
8662;DHT22;29684;47.722;9.388;2022-07-10T03:07:52;16.60;99.90
8662;DHT22;29684;47.722;9.388;2022-07-10T03:10:37;16.60;99.90
8662;DHT22;29684;47.722;9.388;2022-07-10T03:13:21;16.60;99.90
8662;DHT22;29684;47.722;9.388;2022-07-10T03:16:06;16.50;99.90
8662;DHT22;29684;47.722;9.388;2022-07-10T03:18:50;16.30;99.90
8662;DHT22;29684;47.722;9.388;2022-07-10T03:21:34;16.30;99.90
8662;DHT22;29684;47.722;9.388;2022-07-10T03:24:18;16.20;99.90
8662;DHT22;29684;47.722;9.388;2022-07-10T03:27:02;16.20;99.90
8662;DHT22;29684;47.722;9.388;2022-07-10T03:29:47;16.20;99.90
8662;DHT22;29684;47.722;9.388;2022-07-10T03:32:31;16.20;99.90
8662;DHT22;29684;47.722;9.388;2022-07-10T03:35:16;16.20;99.90
8662;DHT22;29684;47.722;9.388;2022-07-10T03:38:00;16.20;99.90
8662;DHT22;29684;47.722;9.388;2022-07-10T03:40:44;16.10;99.90
8662;DHT22;29684;47.722;9.388;2022-07-10T03:43:31;16.10;99.90
8662;DHT22;29684;47.722;9.388;2022-07-10T03:46:15;16.30;99.90
8662;DHT22;29684;47.722;9.388;2022-07-10T03:48:59;16.40;99.90
8662;DHT22;29684;47.722;9.388;2022-07-10T03:51:43;16.80;99.90
8662;DHT22;29684;47.722;9.388;2022-07-10T03:54:29;16.80;99.90
8662;DHT22;29684;47.722;9.388;2022-07-10T03:57:14;16.80;99.90
8662;DHT22;29684;47.722;9.388;2022-07-10T04:00:17;16.70;99.90
8662;DHT22;29684;47.722;9.388;2022-07-10T04:03:03;16.70;99.90
8662;DHT22;29684;47.722;9.388;2022-07-10T04:05:48;16.80;99.90
8662;DHT22;29684;47.722;9.388;2022-07-10T04:08:32;16.80;99.90
8662;DHT22;29684;47.722;9.388;2022-07-10T04:11:16;16.70;99.90
8662;DHT22;29684;47.722;9.388;2022-07-10T04:14:00;16.90;99.90
8662;DHT22;29684;47.722;9.388;2022-07-10T04:16:44;17.00;99.90
8662;DHT22;29684;47.722;9.388;2022-07-10T04:19:29;17.10;99.90
8662;DHT22;29684;47.722;9.388;2022-07-10T04:22:13;17.20;99.90
8662;DHT22;29684;47.722;9.388;2022-07-10T04:24:58;17.20;99.90
8662;DHT22;29684;47.722;9.388;2022-07-10T04:27:42;17.20;99.90
8662;DHT22;29684;47.722;9.388;2022-07-10T04:30:27;17.10;99.90
8662;DHT22;29684;47.722;9.388;2022-07-10T04:33:11;17.20;99.90
8662;DHT22;29684;47.722;9.388;2022-07-10T04:35:55;17.20;99.90
8662;DHT22;29684;47.722;9.388;2022-07-10T04:38:39;17.20;99.90
8662;DHT22;29684;47.722;9.388;2022-07-10T04:41:24;17.00;99.90
8662;DHT22;29684;47.722;9.388;2022-07-10T04:44:08;17.10;99.90
8662;DHT22;29684;47.722;9.388;2022-07-10T04:46:52;17.10;99.90
8662;DHT22;29684;47.722;9.388;2022-07-10T04:49:37;17.30;99.90
8662;DHT22;29684;47.722;9.388;2022-07-10T04:52:21;17.40;99.90
8662;DHT22;29684;47.722;9.388;2022-07-10T04:55:06;17.30;99.90
8662;DHT22;29684;47.722;9.388;2022-07-10T04:57:50;17.30;99.90
8662;DHT22;29684;47.722;9.388;2022-07-10T05:00:34;17.40;99.90
8662;DHT22;29684;47.722;9.388;2022-07-10T05:03:18;17.50;99.90
8662;DHT22;29684;47.722;9.388;2022-07-10T05:06:03;17.40;99.90
8662;DHT22;29684;47.722;9.388;2022-07-10T05:08:47;17.40;99.90
8662;DHT22;29684;47.722;9.388;2022-07-10T05:11:31;17.60;99.90
8662;DHT22;29684;47.722;9.388;2022-07-10T05:14:15;17.60;99.90
8662;DHT22;29684;47.722;9.388;2022-07-10T05:17:00;17.70;99.90
8662;DHT22;29684;47.722;9.388;2022-07-10T05:19:44;17.60;99.90
8662;DHT22;29684;47.722;9.388;2022-07-10T05:22:28;17.60;99.90
8662;DHT22;29684;47.722;9.388;2022-07-10T05:25:14;17.60;99.90
8662;DHT22;29684;47.722;9.388;2022-07-10T05:27:58;17.70;99.90
8662;DHT22;29684;47.722;9.388;2022-07-10T05:30:42;17.60;99.90
8662;DHT22;29684;47.722;9.388;2022-07-10T05:33:26;17.80;99.90
8662;DHT22;29684;47.722;9.388;2022-07-10T05:36:12;17.90;99.90
8662;DHT22;29684;47.722;9.388;2022-07-10T05:38:56;17.80;99.90
8662;DHT22;29684;47.722;9.388;2022-07-10T05:41:40;17.80;99.90
8662;DHT22;29684;47.722;9.388;2022-07-10T05:44:25;17.70;99.90
8662;DHT22;29684;47.722;9.388;2022-07-10T05:47:09;17.70;99.90
8662;DHT22;29684;47.722;9.388;2022-07-10T05:49:53;17.80;99.90
8662;DHT22;29684;47.722;9.388;2022-07-10T05:52:38;18.00;99.90
8662;DHT22;29684;47.722;9.388;2022-07-10T05:55:22;18.00;99.90
8662;DHT22;29684;47.722;9.388;2022-07-10T05:58:07;18.10;99.90
8662;DHT22;29684;47.722;9.388;2022-07-10T06:00:51;18.10;99.90
8662;DHT22;29684;47.722;9.388;2022-07-10T06:03:36;18.30;99.90
8662;DHT22;29684;47.722;9.388;2022-07-10T06:06:20;18.30;99.90
8662;DHT22;29684;47.722;9.388;2022-07-10T06:09:04;18.20;99.90
8662;DHT22;29684;47.722;9.388;2022-07-10T06:11:48;18.20;99.90
8662;DHT22;29684;47.722;9.388;2022-07-10T06:14:33;18.10;99.90
8662;DHT22;29684;47.722;9.388;2022-07-10T06:17:18;18.40;99.90
8662;DHT22;29684;47.722;9.388;2022-07-10T06:20:03;18.60;99.90
8662;DHT22;29684;47.722;9.388;2022-07-10T06:22:47;18.10;99.90
8662;DHT22;29684;47.722;9.388;2022-07-10T06:25:31;18.40;99.90
8662;DHT22;29684;47.722;9.388;2022-07-10T06:28:16;18.30;99.90
8662;DHT22;29684;47.722;9.388;2022-07-10T06:31:01;18.40;99.90
8662;DHT22;29684;47.722;9.388;2022-07-10T06:33:45;18.60;99.90
8662;DHT22;29684;47.722;9.388;2022-07-10T06:36:29;18.50;99.90
8662;DHT22;29684;47.722;9.388;2022-07-10T06:39:13;18.50;99.90
8662;DHT22;29684;47.722;9.388;2022-07-10T06:41:57;18.50;99.90
8662;DHT22;29684;47.722;9.388;2022-07-10T06:44:45;18.60;99.90
8662;DHT22;29684;47.722;9.388;2022-07-10T06:47:29;18.60;99.90
8662;DHT22;29684;47.722;9.388;2022-07-10T06:50:33;18.80;99.90
8662;DHT22;29684;47.722;9.388;2022-07-10T06:53:19;19.00;99.90
8662;DHT22;29684;47.722;9.388;2022-07-10T06:56:08;19.30;99.90
8662;DHT22;29684;47.722;9.388;2022-07-10T06:58:52;19.30;99.90
8662;DHT22;29684;47.722;9.388;2022-07-10T07:01:37;18.90;99.90
8662;DHT22;29684;47.722;9.388;2022-07-10T07:04:21;20.70;99.90
8662;DHT22;29684;47.722;9.388;2022-07-10T07:07:05;19.10;99.90
8662;DHT22;29684;47.722;9.388;2022-07-10T07:09:49;19.20;99.90
8662;DHT22;29684;47.722;9.388;2022-07-10T07:12:36;19.40;99.90
8662;DHT22;29684;47.722;9.388;2022-07-10T07:15:21;19.50;99.90
8662;DHT22;29684;47.722;9.388;2022-07-10T07:18:08;18.80;99.90
8662;DHT22;29684;47.722;9.388;2022-07-10T07:20:55;19.70;99.90
8662;DHT22;29684;47.722;9.388;2022-07-10T07:23:58;19.60;99.90
8662;DHT22;29684;47.722;9.388;2022-07-10T07:26:42;19.60;99.90
8662;DHT22;29684;47.722;9.388;2022-07-10T07:29:27;19.60;99.90
8662;DHT22;29684;47.722;9.388;2022-07-10T07:32:11;19.50;99.90
8662;DHT22;29684;47.722;9.388;2022-07-10T07:34:56;19.70;99.90
8662;DHT22;29684;47.722;9.388;2022-07-10T07:37:42;19.70;99.90
8662;DHT22;29684;47.722;9.388;2022-07-10T07:40:27;18.60;99.90
8662;DHT22;29684;47.722;9.388;2022-07-10T07:43:11;19.40;99.90
8662;DHT22;29684;47.722;9.388;2022-07-10T07:45:56;19.50;99.90
8662;DHT22;29684;47.722;9.388;2022-07-10T07:48:41;19.50;99.90
8662;DHT22;29684;47.722;9.388;2022-07-10T07:51:26;19.50;99.90
8662;DHT22;29684;47.722;9.388;2022-07-10T07:54:10;19.60;99.90
8662;DHT22;29684;47.722;9.388;2022-07-10T07:56:54;19.80;99.90
8662;DHT22;29684;47.722;9.388;2022-07-10T07:59:39;19.70;99.90
8662;DHT22;29684;47.722;9.388;2022-07-10T08:02:23;19.60;99.90
8662;DHT22;29684;47.722;9.388;2022-07-10T08:05:08;19.70;99.90
8662;DHT22;29684;47.722;9.388;2022-07-10T08:07:56;20.00;99.90
8662;DHT22;29684;47.722;9.388;2022-07-10T08:10:41;19.90;99.90
8662;DHT22;29684;47.722;9.388;2022-07-10T08:13:25;19.60;99.90
8662;DHT22;29684;47.722;9.388;2022-07-10T08:16:09;19.60;99.90
8662;DHT22;29684;47.722;9.388;2022-07-10T08:18:54;19.90;99.90
8662;DHT22;29684;47.722;9.388;2022-07-10T08:21:39;19.90;99.90
8662;DHT22;29684;47.722;9.388;2022-07-10T08:24:23;20.00;99.90
8662;DHT22;29684;47.722;9.388;2022-07-10T08:27:08;20.40;99.90
8662;DHT22;29684;47.722;9.388;2022-07-10T08:29:52;20.70;99.90
8662;DHT22;29684;47.722;9.388;2022-07-10T08:32:42;20.80;99.90
8662;DHT22;29684;47.722;9.388;2022-07-10T08:35:27;20.70;99.90
8662;DHT22;29684;47.722;9.388;2022-07-10T08:38:11;20.70;99.90
8662;DHT22;29684;47.722;9.388;2022-07-10T08:40:56;20.90;99.90
8662;DHT22;29684;47.722;9.388;2022-07-10T08:43:41;20.90;99.90
8662;DHT22;29684;47.722;9.388;2022-07-10T08:46:27;21.00;99.90
8662;DHT22;29684;47.722;9.388;2022-07-10T08:49:12;21.10;99.90
8662;DHT22;29684;47.722;9.388;2022-07-10T08:52:08;20.20;99.90
8662;DHT22;29684;47.722;9.388;2022-07-10T08:54:58;19.70;99.90
8662;DHT22;29684;47.722;9.388;2022-07-10T08:57:43;19.90;99.90
8662;DHT22;29684;47.722;9.388;2022-07-10T09:00:27;20.00;99.90
8662;DHT22;29684;47.722;9.388;2022-07-10T09:03:12;20.40;99.90
8662;DHT22;29684;47.722;9.388;2022-07-10T09:05:56;20.30;99.90
8662;DHT22;29684;47.722;9.388;2022-07-10T09:08:58;20.30;99.90
8662;DHT22;29684;47.722;9.388;2022-07-10T09:11:42;20.10;99.90
8662;DHT22;29684;47.722;9.388;2022-07-10T09:14:27;20.10;99.90
8662;DHT22;29684;47.722;9.388;2022-07-10T09:17:17;20.00;99.90
8662;DHT22;29684;47.722;9.388;2022-07-10T09:20:01;20.20;99.90
8662;DHT22;29684;47.722;9.388;2022-07-10T09:22:47;20.80;99.90
8662;DHT22;29684;47.722;9.388;2022-07-10T09:25:32;21.20;99.90
8662;DHT22;29684;47.722;9.388;2022-07-10T09:28:22;20.90;99.90
8662;DHT22;29684;47.722;9.388;2022-07-10T09:31:10;21.50;99.90
8662;DHT22;29684;47.722;9.388;2022-07-10T09:33:54;21.30;99.90
8662;DHT22;29684;47.722;9.388;2022-07-10T09:36:38;21.60;99.90
8662;DHT22;29684;47.722;9.388;2022-07-10T09:39:22;21.70;99.90
8662;DHT22;29684;47.722;9.388;2022-07-10T09:42:31;21.50;99.90
8662;DHT22;29684;47.722;9.388;2022-07-10T09:45:16;21.70;99.90
8662;DHT22;29684;47.722;9.388;2022-07-10T09:48:01;21.70;99.90
8662;DHT22;29684;47.722;9.388;2022-07-10T09:50:47;21.80;99.90
8662;DHT22;29684;47.722;9.388;2022-07-10T09:53:32;21.80;99.90
8662;DHT22;29684;47.722;9.388;2022-07-10T09:56:17;21.90;99.90
8662;DHT22;29684;47.722;9.388;2022-07-10T09:59:07;21.30;99.90
8662;DHT22;29684;47.722;9.388;2022-07-10T10:01:52;21.40;99.90
8662;DHT22;29684;47.722;9.388;2022-07-10T10:04:37;21.10;99.90
8662;DHT22;29684;47.722;9.388;2022-07-10T10:07:22;20.70;99.90
8662;DHT22;29684;47.722;9.388;2022-07-10T10:10:08;20.80;99.90
8662;DHT22;29684;47.722;9.388;2022-07-10T10:12:59;21.00;99.90
8662;DHT22;29684;47.722;9.388;2022-07-10T10:15:48;21.20;99.90
8662;DHT22;29684;47.722;9.388;2022-07-10T10:18:33;21.60;99.90
8662;DHT22;29684;47.722;9.388;2022-07-10T10:21:19;22.00;99.90
8662;DHT22;29684;47.722;9.388;2022-07-10T10:24:05;21.90;99.90
8662;DHT22;29684;47.722;9.388;2022-07-10T10:26:50;22.20;99.90
8662;DHT22;29684;47.722;9.388;2022-07-10T10:29:36;22.40;99.90
8662;DHT22;29684;47.722;9.388;2022-07-10T10:32:21;22.00;99.90
8662;DHT22;29684;47.722;9.388;2022-07-10T10:35:05;21.90;99.90
8662;DHT22;29684;47.722;9.388;2022-07-10T10:37:54;21.70;99.90
8662;DHT22;29684;47.722;9.388;2022-07-10T10:40:42;21.80;99.90
8662;DHT22;29684;47.722;9.388;2022-07-10T10:43:30;22.00;99.90
8662;DHT22;29684;47.722;9.388;2022-07-10T10:46:27;22.20;99.90
8662;DHT22;29684;47.722;9.388;2022-07-10T10:49:13;22.20;99.90
8662;DHT22;29684;47.722;9.388;2022-07-10T10:52:04;22.50;99.90
8662;DHT22;29684;47.722;9.388;2022-07-10T10:57:42;22.90;99.90
8662;DHT22;29684;47.722;9.388;2022-07-10T11:00:35;23.40;99.90
8662;DHT22;29684;47.722;9.388;2022-07-10T11:03:22;23.10;99.90
8662;DHT22;29684;47.722;9.388;2022-07-10T11:06:12;22.90;99.90
8662;DHT22;29684;47.722;9.388;2022-07-10T11:09:31;23.00;99.90
8662;DHT22;29684;47.722;9.388;2022-07-10T11:12:15;23.10;99.90
8662;DHT22;29684;47.722;9.388;2022-07-10T11:15:00;23.40;99.90
8662;DHT22;29684;47.722;9.388;2022-07-10T11:17:50;23.10;99.90
8662;DHT22;29684;47.722;9.388;2022-07-10T11:20:40;23.00;99.90
8662;DHT22;29684;47.722;9.388;2022-07-10T11:27:09;22.70;99.90
8662;DHT22;29684;47.722;9.388;2022-07-10T11:30:02;22.70;99.90
8662;DHT22;29684;47.722;9.388;2022-07-10T11:32:50;23.60;99.90
8662;DHT22;29684;47.722;9.388;2022-07-10T11:35:35;23.70;99.90
8662;DHT22;29684;47.722;9.388;2022-07-10T11:38:24;24.10;99.90
8662;DHT22;29684;47.722;9.388;2022-07-10T11:41:17;24.10;99.90
8662;DHT22;29684;47.722;9.388;2022-07-10T11:44:03;23.90;99.90
8662;DHT22;29684;47.722;9.388;2022-07-10T11:46:48;23.90;99.90
8662;DHT22;29684;47.722;9.388;2022-07-10T11:49:33;23.70;99.90
8662;DHT22;29684;47.722;9.388;2022-07-10T11:52:18;24.40;99.90
8662;DHT22;29684;47.722;9.388;2022-07-10T11:55:16;24.20;99.90
8662;DHT22;29684;47.722;9.388;2022-07-10T11:58:00;24.40;99.90
8662;DHT22;29684;47.722;9.388;2022-07-10T12:00:57;23.70;99.90
8662;DHT22;29684;47.722;9.388;2022-07-10T12:03:56;23.80;99.90
8662;DHT22;29684;47.722;9.388;2022-07-10T12:06:46;23.80;99.90
8662;DHT22;29684;47.722;9.388;2022-07-10T12:09:31;24.20;99.90
8662;DHT22;29684;47.722;9.388;2022-07-10T12:12:15;24.60;99.90
8662;DHT22;29684;47.722;9.388;2022-07-10T12:15:00;24.30;99.90
8662;DHT22;29684;47.722;9.388;2022-07-10T12:17:51;24.40;99.90
8662;DHT22;29684;47.722;9.388;2022-07-10T12:20:37;24.60;99.90
8662;DHT22;29684;47.722;9.388;2022-07-10T12:23:22;24.10;99.90
8662;DHT22;29684;47.722;9.388;2022-07-10T12:26:11;24.70;99.90
8662;DHT22;29684;47.722;9.388;2022-07-10T12:28:57;25.10;99.90
8662;DHT22;29684;47.722;9.388;2022-07-10T12:31:41;25.30;99.90
8662;DHT22;29684;47.722;9.388;2022-07-10T12:34:37;25.60;99.90
8662;DHT22;29684;47.722;9.388;2022-07-10T12:37:23;26.00;99.90
8662;DHT22;29684;47.722;9.388;2022-07-10T12:40:08;26.50;99.90
8662;DHT22;29684;47.722;9.388;2022-07-10T12:43:03;26.60;99.90
8662;DHT22;29684;47.722;9.388;2022-07-10T12:46:17;26.00;99.90
8662;DHT22;29684;47.722;9.388;2022-07-10T12:49:11;25.50;99.90
8662;DHT22;29684;47.722;9.388;2022-07-10T12:51:56;25.40;99.90
8662;DHT22;29684;47.722;9.388;2022-07-10T12:54:40;24.50;99.90
8662;DHT22;29684;47.722;9.388;2022-07-10T12:57:25;24.70;99.90
8662;DHT22;29684;47.722;9.388;2022-07-10T13:00:10;24.90;99.90
8662;DHT22;29684;47.722;9.388;2022-07-10T13:05:48;26.50;99.90
8662;DHT22;29684;47.722;9.388;2022-07-10T13:08:44;26.30;99.90
8662;DHT22;29684;47.722;9.388;2022-07-10T13:11:29;25.70;99.90
8662;DHT22;29684;47.722;9.388;2022-07-10T13:14:13;25.90;99.90
8662;DHT22;29684;47.722;9.388;2022-07-10T13:16:57;25.70;99.90
8662;DHT22;29684;47.722;9.388;2022-07-10T13:19:41;26.30;99.90
8662;DHT22;29684;47.722;9.388;2022-07-10T13:22:25;25.90;99.90
8662;DHT22;29684;47.722;9.388;2022-07-10T13:25:09;25.60;99.90
8662;DHT22;29684;47.722;9.388;2022-07-10T13:27:54;25.40;99.90
8662;DHT22;29684;47.722;9.388;2022-07-10T13:30:39;25.50;99.90
8662;DHT22;29684;47.722;9.388;2022-07-10T13:33:23;26.00;99.90
8662;DHT22;29684;47.722;9.388;2022-07-10T13:36:08;26.40;99.70
8662;DHT22;29684;47.722;9.388;2022-07-10T13:38:53;27.20;99.90
8662;DHT22;29684;47.722;9.388;2022-07-10T13:41:38;27.60;99.10
8662;DHT22;29684;47.722;9.388;2022-07-10T13:44:23;27.10;98.70
8662;DHT22;29684;47.722;9.388;2022-07-10T13:47:07;26.00;99.90
8662;DHT22;29684;47.722;9.388;2022-07-10T13:49:52;25.60;99.70
8662;DHT22;29684;47.722;9.388;2022-07-10T13:52:36;25.80;99.20
8662;DHT22;29684;47.722;9.388;2022-07-10T13:55:21;25.60;99.20
8662;DHT22;29684;47.722;9.388;2022-07-10T13:58:05;26.30;99.20
8662;DHT22;29684;47.722;9.388;2022-07-10T14:00:50;26.60;98.10
8662;DHT22;29684;47.722;9.388;2022-07-10T14:03:35;26.30;98.40
8662;DHT22;29684;47.722;9.388;2022-07-10T14:06:19;26.10;98.10
8662;DHT22;29684;47.722;9.388;2022-07-10T14:09:04;25.80;98.10
8662;DHT22;29684;47.722;9.388;2022-07-10T14:11:50;25.50;98.70
8662;DHT22;29684;47.722;9.388;2022-07-10T14:14:34;25.00;99.20
8662;DHT22;29684;47.722;9.388;2022-07-10T14:17:18;25.20;99.40
8662;DHT22;29684;47.722;9.388;2022-07-10T14:20:03;25.50;99.10
8662;DHT22;29684;47.722;9.388;2022-07-10T14:22:47;25.70;98.10
8662;DHT22;29684;47.722;9.388;2022-07-10T14:25:32;25.50;98.80
8662;DHT22;29684;47.722;9.388;2022-07-10T14:28:16;25.00;99.00
8662;DHT22;29684;47.722;9.388;2022-07-10T14:31:02;25.10;99.90
8662;DHT22;29684;47.722;9.388;2022-07-10T14:33:47;25.00;99.90
8662;DHT22;29684;47.722;9.388;2022-07-10T14:36:32;24.80;99.90
8662;DHT22;29684;47.722;9.388;2022-07-10T14:39:17;24.30;99.90
8662;DHT22;29684;47.722;9.388;2022-07-10T14:42:01;24.20;99.90
8662;DHT22;29684;47.722;9.388;2022-07-10T14:44:45;23.80;99.90
8662;DHT22;29684;47.722;9.388;2022-07-10T14:47:29;24.00;99.90
8662;DHT22;29684;47.722;9.388;2022-07-10T14:50:14;24.20;99.90
8662;DHT22;29684;47.722;9.388;2022-07-10T14:53:01;24.00;99.90
8662;DHT22;29684;47.722;9.388;2022-07-10T14:55:45;24.40;99.90
8662;DHT22;29684;47.722;9.388;2022-07-10T14:58:29;24.60;99.90
8662;DHT22;29684;47.722;9.388;2022-07-10T15:01:13;24.80;99.90
8662;DHT22;29684;47.722;9.388;2022-07-10T15:03:58;24.70;99.90
8662;DHT22;29684;47.722;9.388;2022-07-10T15:06:43;24.50;99.90
8662;DHT22;29684;47.722;9.388;2022-07-10T15:09:27;24.20;99.90
8662;DHT22;29684;47.722;9.388;2022-07-10T15:12:11;24.10;99.90
8662;DHT22;29684;47.722;9.388;2022-07-10T15:14:55;23.90;99.90
8662;DHT22;29684;47.722;9.388;2022-07-10T15:17:40;23.70;99.90
8662;DHT22;29684;47.722;9.388;2022-07-10T15:20:24;23.50;99.90
8662;DHT22;29684;47.722;9.388;2022-07-10T15:23:08;23.30;99.90
8662;DHT22;29684;47.722;9.388;2022-07-10T15:25:53;23.40;99.90
8662;DHT22;29684;47.722;9.388;2022-07-10T15:28:37;23.40;99.90
8662;DHT22;29684;47.722;9.388;2022-07-10T15:31:21;23.40;99.90
8662;DHT22;29684;47.722;9.388;2022-07-10T15:34:08;23.40;99.90
8662;DHT22;29684;47.722;9.388;2022-07-10T15:36:53;23.30;99.90
8662;DHT22;29684;47.722;9.388;2022-07-10T15:39:37;23.20;99.90
8662;DHT22;29684;47.722;9.388;2022-07-10T15:42:27;23.20;99.90
8662;DHT22;29684;47.722;9.388;2022-07-10T15:45:11;23.20;99.90
8662;DHT22;29684;47.722;9.388;2022-07-10T15:47:56;23.10;99.90
8662;DHT22;29684;47.722;9.388;2022-07-10T15:50:41;22.80;99.90
8662;DHT22;29684;47.722;9.388;2022-07-10T15:53:26;22.70;99.90
8662;DHT22;29684;47.722;9.388;2022-07-10T15:56:10;22.70;99.90
8662;DHT22;29684;47.722;9.388;2022-07-10T15:58:54;22.70;99.90
8662;DHT22;29684;47.722;9.388;2022-07-10T16:01:38;22.80;99.90
8662;DHT22;29684;47.722;9.388;2022-07-10T16:04:24;22.70;99.90
8662;DHT22;29684;47.722;9.388;2022-07-10T16:07:08;22.90;99.90
8662;DHT22;29684;47.722;9.388;2022-07-10T16:09:52;23.30;99.90
8662;DHT22;29684;47.722;9.388;2022-07-10T16:12:37;22.70;99.90
8662;DHT22;29684;47.722;9.388;2022-07-10T16:15:21;22.80;99.90
8662;DHT22;29684;47.722;9.388;2022-07-10T16:18:05;22.80;99.90
8662;DHT22;29684;47.722;9.388;2022-07-10T16:20:49;22.60;99.90
8662;DHT22;29684;47.722;9.388;2022-07-10T16:23:34;22.60;99.90
8662;DHT22;29684;47.722;9.388;2022-07-10T16:26:18;22.60;99.90
8662;DHT22;29684;47.722;9.388;2022-07-10T16:29:04;22.60;99.90
8662;DHT22;29684;47.722;9.388;2022-07-10T16:31:49;22.50;99.90
8662;DHT22;29684;47.722;9.388;2022-07-10T16:34:33;22.40;99.90
8662;DHT22;29684;47.722;9.388;2022-07-10T16:37:18;22.30;99.90
8662;DHT22;29684;47.722;9.388;2022-07-10T16:40:02;22.20;99.90
8662;DHT22;29684;47.722;9.388;2022-07-10T16:42:47;22.10;99.90
8662;DHT22;29684;47.722;9.388;2022-07-10T16:45:31;22.10;99.90
8662;DHT22;29684;47.722;9.388;2022-07-10T16:48:15;22.10;99.90
8662;DHT22;29684;47.722;9.388;2022-07-10T16:50:59;22.10;99.90
8662;DHT22;29684;47.722;9.388;2022-07-10T16:53:44;22.20;99.90
8662;DHT22;29684;47.722;9.388;2022-07-10T16:56:28;22.00;99.90
8662;DHT22;29684;47.722;9.388;2022-07-10T16:59:13;21.80;99.90
8662;DHT22;29684;47.722;9.388;2022-07-10T17:01:57;21.80;99.90
8662;DHT22;29684;47.722;9.388;2022-07-10T17:04:42;21.80;99.90
8662;DHT22;29684;47.722;9.388;2022-07-10T17:07:26;21.80;99.90
8662;DHT22;29684;47.722;9.388;2022-07-10T17:10:11;21.80;99.90
8662;DHT22;29684;47.722;9.388;2022-07-10T17:12:57;21.70;99.90
8662;DHT22;29684;47.722;9.388;2022-07-10T17:15:41;21.90;99.90
8662;DHT22;29684;47.722;9.388;2022-07-10T17:18:25;21.90;99.90
8662;DHT22;29684;47.722;9.388;2022-07-10T17:21:11;21.70;99.90
8662;DHT22;29684;47.722;9.388;2022-07-10T17:24:00;21.70;99.90
8662;DHT22;29684;47.722;9.388;2022-07-10T17:26:44;21.60;99.90
8662;DHT22;29684;47.722;9.388;2022-07-10T17:29:28;21.90;99.90
8662;DHT22;29684;47.722;9.388;2022-07-10T17:32:12;21.70;99.90
8662;DHT22;29684;47.722;9.388;2022-07-10T17:34:57;21.70;99.90
8662;DHT22;29684;47.722;9.388;2022-07-10T17:37:41;21.70;99.90
8662;DHT22;29684;47.722;9.388;2022-07-10T17:40:26;21.80;99.90
8662;DHT22;29684;47.722;9.388;2022-07-10T17:43:11;21.70;99.90
8662;DHT22;29684;47.722;9.388;2022-07-10T17:45:55;21.70;99.90
8662;DHT22;29684;47.722;9.388;2022-07-10T17:48:39;21.60;99.90
8662;DHT22;29684;47.722;9.388;2022-07-10T17:51:23;21.50;99.90